This is the latest recevied weather packets stored in our database for station/object KD9NSC. If no packets are shown the sender has not sent any weather packets the latest 1 day(s).
| Time | Temp. | Humidity | Pressure | Rain* | Wind** | Luminosity | Snow |
|---|---|---|---|---|---|---|---|
| 1778085767 | 13.89° C | 44% | 1016 hPa | 0 mm | - | 230 W/m² | - |
| 1778085464 | 13.33° C | 45% | 1016.2 hPa | 0 mm | - | 129 W/m² | - |
| 1778084855 | 13.33° C | 48% | 1015.9 hPa | 0 mm | - | 126 W/m² | - |
| 1778084552 | 13.89° C | 41% | 1016.1 hPa | 0 mm | - | 110 W/m² | - |
| 1778083639 | 13.33° C | 41% | 1016.2 hPa | 0 mm | - | 146 W/m² | - |
| 1778083034 | 12.78° C | 49% | 1016.1 hPa | 0 mm | - | 166 W/m² | - |
| 1778081592 | 12.22° C | 49% | 1016.2 hPa | 0 mm | - | 180 W/m² | - |
| 1778081289 | 12.78° C | 47% | 1016.3 hPa | 0 mm | - | 128 W/m² | - |
| 1778080078 | 12.22° C | 53% | 1016.4 hPa | 0 mm | - | 175 W/m² | - |
| 1778078563 | 11.11° C | 57% | 1016.2 hPa | 0 mm | - | 143 W/m² | - |
| 1778077354 | 11.67° C | 54% | 1016.2 hPa | 0 mm | - | 205 W/m² | - |
| 1778076750 | 10° C | 60% | 1016.2 hPa | 0 mm | - | 95 W/m² | - |
| 1778076144 | 9.44° C | 66% | 1015.9 hPa | 0 mm | - | 66 W/m² | - |
| 1778075537 | 8.89° C | 65% | 1015.9 hPa | 0 mm | - | 43 W/m² | - |
| 1778075234 | 8.89° C | 62% | 1015.7 hPa | 0 mm | - | 41 W/m² | - |
| 1778074930 | 9.44° C | 65% | 1015.7 hPa | 0 mm | - | 33 W/m² | - |
| 1778073718 | 9.44° C | 64% | 1015.4 hPa | 0 mm | - | 41 W/m² | - |
| 1778072506 | 8.89° C | 63% | 1015.1 hPa | 0 mm | - | 36 W/m² | - |
| 1778071297 | 8.33° C | 64% | 1014.9 hPa | 0 mm | - | 24 W/m² | - |
| 1778070693 | 8.33° C | 63% | 1014.7 hPa | 0 mm | - | 25 W/m² | - |
| 1778069179 | 7.78° C | 68% | 1014.5 hPa | 0 mm | - | 17 W/m² | - |
| 1778067969 | 7.78° C | 68% | 1014.6 hPa | 0 mm | - | 11 W/m² | - |
| 1778067365 | 7.78° C | 70% | 1014.3 hPa | 0 mm | - | 9 W/m² | - |
| 1778067062 | 7.78° C | 68% | 1014.2 hPa | 0 mm | - | 10 W/m² | - |
| 1778066758 | 7.78° C | 70% | 1014.2 hPa | 0 mm | - | 10 W/m² | - |
* Rain latest hour (hover to see other rain measurements)
** Current wind speed in m/s (hover to see current wind gust speed)